Pomona, Illinois
Current Conditions -  °F | °C
As of 12:52 AM on Sunday 26 Oct 2014 (Local Time) from KMDH Reporting Station
Haze Haze  
Wind Chill: 51°   Ceiling: Unl
Heat Index: 51°   Visibility: 2mi
Dew Point: 50°   Wind: 0mph
Humidity: 96%   Direction: NA
Pressure: 30"   Gusts: NA
Location:  37.63°N, 89.34°W
Report Text: KMDH 260552Z AUTO 00000KT 2SM BR CLR 11/10 A3000 RMK AO2 SLP158 T01060100 10183 20106 402720106 58004
Loading
Personal Weather Stations






























Interactive Weather Map New forecast layout! Learn more

10-Day Weather Forecast

Advertisements
Track Severe Weather on mobile